Welcome to Northern Hawkes Bay. New Zealand.
PWS Header
      nz Flag



Hit Counter


W3C Valid W3C Valid logo


    Wairoa

Select any of the Stations below to visit their websites.










Historic Data from Weather Underground
Select the location of interest below. Wairoa is the default. Please have patience, this Data is slow to load in.
Northern Hawkes Bay Historical Data
Daily Summary for April 17, 2018 Units:  Both    English   Metric
« Previous Day
Next Day »
Daily Weekly Monthly Yearly Custom
  High: Low: Average:
Temperature: 73.9 °F /  23.3 °C 54 °F /  12.2 °C 64.9 °F /  18.3 °C
Dew Point: 62.1 °F /  16.7 °C 41.7 °F /  5.4 °C 54.1 °F /  12.3 °C
Humidity: 95% 36% 70%
Wind Speed: 18.3mph /  29.4km/h - 3.5mph /  5.7km/h
Wind Gust: 27.3mph /  43.9km/h - -
Wind- - West
Pressure: 29.8 in /  1008.4 hPa 29.6 in /  1003.9 hPa -
Precipitation: 0 in /  0.0 mm    
Historical Graphs
 
 
Tabular Data for April 17, 2018
Time Temperature Dew Point Pressure Wind Wind Speed Wind Gust Humidity Rainfall Rate (Hourly) solar
00:02 71.1 °F /  21.7 °C 57.9 °F /  14.4 °C 29.7in /  1005.6hPa NNW 1.6mph /  2.6km/h 9.2mph /  14.8km/h 63% 0in /  0.0mm 34 W/m2
00:07 70.9 °F /  21.6 °C 58.1 °F /  14.5 °C 29.7in /  1005.6hPa NNW 2.2mph /  3.5km/h 7.6mph /  12.2km/h 64% 0in /  0.0mm 39 W/m2
00:12 70.7 °F /  21.5 °C 58.5 °F /  14.7 °C 29.7in /  1005.3hPa NNW 0.7mph /  1.1km/h 6mph /  9.7km/h 65% 0in /  0.0mm 36 W/m2
00:17 70.7 °F /  21.5 °C 57.9 °F /  14.4 °C 29.7in /  1005.3hPa North 3.8mph /  6.1km/h 6mph /  9.7km/h 64% 0in /  0.0mm 39 W/m2
00:22 70.7 °F /  21.5 °C 57.6 °F /  14.2 °C 29.7in /  1005.6hPa North 2.2mph /  3.5km/h 6mph /  9.7km/h 63% 0in /  0.0mm 37 W/m2
00:27 70.9 °F /  21.6 °C 57.7 °F /  14.3 °C 29.7in /  1005.6hPa North 0.7mph /  1.1km/h 7.6mph /  12.2km/h 63% 0in /  0.0mm 35 W/m2
00:32 70.9 °F /  21.6 °C 57.7 °F /  14.3 °C 29.7in /  1005.3hPa Calm   7.6mph /  12.2km/h 63% 0in /  0.0mm 32 W/m2
00:37 70.9 °F /  21.6 °C 57.7 °F /  14.3 °C 29.7in /  1005.3hPa Calm   4.5mph /  7.2km/h 63% 0in /  0.0mm 33 W/m2
00:42 70.7 °F /  21.5 °C 57.6 °F /  14.2 °C 29.7in /  1005.3hPa NE 0.7mph /  1.1km/h 5.4mph /  8.7km/h 63% 0in /  0.0mm 34 W/m2
00:47 71.2 °F /  21.8 °C 57.9 °F /  14.4 °C 29.7in /  1005.3hPa Calm   5.4mph /  8.7km/h 63% 0in /  0.0mm 43 W/m2
00:52 72.7 °F /  22.6 °C 58.5 °F /  14.7 °C 29.7in /  1005.0hPa NNE 2.2mph /  3.5km/h 4.5mph /  7.2km/h 61% 0in /  0.0mm 35 W/m2
00:57 72.9 °F /  22.7 °C 58.3 °F /  14.6 °C 29.7in /  1005.3hPa NNE 3.8mph /  6.1km/h 5.4mph /  8.7km/h 60% 0in /  0.0mm 36 W/m2
01:02 73.4 °F /  23.0 °C 58.3 °F /  14.6 °C 29.7in /  1005.0hPa NE 2.2mph /  3.5km/h 5.4mph /  8.7km/h 59% 0in /  0.0mm 29 W/m2
01:07 73.9 °F /  23.3 °C 57.7 °F /  14.3 °C 29.7in /  1005.0hPa Calm   5.4mph /  8.7km/h 57% 0in /  0.0mm 24 W/m2
01:12 73.9 °F /  23.3 °C 57.7 °F /  14.3 °C 29.7in /  1005.0hPa NE 3.1mph /  5.0km/h 6mph /  9.7km/h 57% 0in /  0.0mm 16 W/m2
01:17 72.7 °F /  22.6 °C 57.9 °F /  14.4 °C 29.7in /  1004.6hPa NNE 4.5mph /  7.2km/h 7.6mph /  12.2km/h 60% 0in /  0.0mm 18 W/m2
01:22 71.6 °F /  22.0 °C 57.6 °F /  14.2 °C 29.7in /  1005.0hPa North 2.2mph /  3.5km/h 8.3mph /  13.4km/h 61% 0in /  0.0mm 16 W/m2
01:27 71.1 °F /  21.7 °C 58.3 °F /  14.6 °C 29.7in /  1005.0hPa North 7.6mph /  12.2km/h 12.1mph /  19.5km/h 64% 0in /  0.0mm 9 W/m2
01:32 70.7 °F /  21.5 °C 57.9 °F /  14.4 °C 29.7in /  1005.0hPa NNW 8.3mph /  13.4km/h 13mph /  20.9km/h 64% 0in /  0.0mm 4 W/m2
01:37 70.7 °F /  21.5 °C 57.9 °F /  14.4 °C 29.7in /  1004.6hPa North 6.9mph /  11.1km/h 13.6mph /  21.9km/h 64% 0in /  0.0mm 1 W/m2
01:42 70.9 °F /  21.6 °C 57.7 °F /  14.3 °C 29.7in /  1005.0hPa North 6.9mph /  11.1km/h 14.5mph /  23.3km/h 63% 0in /  0.0mm 0 W/m2
01:47 70.9 °F /  21.6 °C 57.2 °F /  14.0 °C 29.7in /  1005.0hPa North 5.4mph /  8.7km/h 15.2mph /  24.5km/h 62% 0in /  0.0mm 0 W/m2
01:52 70.7 °F /  21.5 °C 57.6 °F /  14.2 °C 29.7in /  1005.0hPa North 6mph /  9.7km/h 15.2mph /  24.5km/h 63% 0in /  0.0mm 0 W/m2
01:57 70.5 °F /  21.4 °C 57.4 °F /  14.1 °C 29.7in /  1005.0hPa NNW 6.9mph /  11.1km/h 14.5mph /  23.3km/h 63% 0in /  0.0mm 0 W/m2
02:02 70.5 °F /  21.4 °C 57.4 °F /  14.1 °C 29.7in /  1004.6hPa NNW 3.1mph /  5.0km/h 14.5mph /  23.3km/h 63% 0in /  0.0mm 0 W/m2
02:07 70.5 °F /  21.4 °C 57.4 °F /  14.1 °C 29.7in /  1004.6hPa North 3.8mph /  6.1km/h 13mph /  20.9km/h 63% 0in /  0.0mm 0 W/m2
02:12 70.5 °F /  21.4 °C 57.4 °F /  14.1 °C 29.7in /  1005.0hPa North 4.5mph /  7.2km/h 10.7mph /  17.2km/h 63% 0in /  0.0mm 0 W/m2
02:17 70.5 °F /  21.4 °C 57.4 °F /  14.1 °C 29.7in /  1004.6hPa North 6mph /  9.7km/h 13.6mph /  21.9km/h 63% 0in /  0.0mm 0 W/m2
02:22 70.5 °F /  21.4 °C 57.4 °F /  14.1 °C 29.7in /  1005.0hPa NNW 7.6mph /  12.2km/h 13.6mph /  21.9km/h 63% 0in /  0.0mm 0 W/m2
02:27 70.5 °F /  21.4 °C 57.4 °F /  14.1 °C 29.7in /  1005.3hPa NW 3.1mph /  5.0km/h 11.4mph /  18.3km/h 63% 0in /  0.0mm 0 W/m2
02:32 70.2 °F /  21.2 °C 57 °F /  13.9 °C 29.7in /  1005.3hPa NNW 7.6mph /  12.2km/h 11.4mph /  18.3km/h 63% 0in /  0.0mm 0 W/m2
02:37 70.2 °F /  21.2 °C 57 °F /  13.9 °C 29.7in /  1005.0hPa North 4.5mph /  7.2km/h 9.8mph /  15.8km/h 63% 0in /  0.0mm 0 W/m2
02:42 70.2 °F /  21.2 °C 57 °F /  13.9 °C 29.7in /  1005.3hPa North 3.8mph /  6.1km/h 9.8mph /  15.8km/h 63% 0in /  0.0mm 0 W/m2
02:47 70.3 °F /  21.3 °C 57.6 °F /  14.2 °C 29.7in /  1005.0hPa North 3.1mph /  5.0km/h 9.2mph /  14.8km/h 64% 0in /  0.0mm 0 W/m2
02:52 70.2 °F /  21.2 °C 57.4 °F /  14.1 °C 29.7in /  1005.0hPa North 2.2mph /  3.5km/h 6.9mph /  11.1km/h 64% 0in /  0.0mm 0 W/m2
02:57 70 °F /  21.1 °C 57.4 °F /  14.1 °C 29.7in /  1005.3hPa Calm   6.9mph /  11.1km/h 64% 0in /  0.0mm 0 W/m2
03:02 69.8 °F /  21.0 °C 57.6 °F /  14.2 °C 29.7in /  1005.3hPa North 3.8mph /  6.1km/h 6.9mph /  11.1km/h 65% 0in /  0.0mm 0 W/m2
03:07 69.6 °F /  20.9 °C 57.7 °F /  14.3 °C 29.7in /  1005.0hPa North 1.6mph /  2.6km/h 6.9mph /  11.1km/h 66% 0in /  0.0mm 0 W/m2
03:12 69.4 °F /  20.8 °C 57.9 °F /  14.4 °C 29.7in /  1005.0hPa North 1.6mph /  2.6km/h 7.6mph /  12.2km/h 67% 0in /  0.0mm 0 W/m2
03:17 69.8 °F /  21.0 °C 57.9 °F /  14.4 °C 29.7in /  1005.0hPa North 4.5mph /  7.2km/h 10.7mph /  17.2km/h 66% 0in /  0.0mm 0 W/m2
03:22 70.2 °F /  21.2 °C 58.3 °F /  14.6 °C 29.7in /  1005.0hPa North 6.9mph /  11.1km/h 13mph /  20.9km/h 66% 0in /  0.0mm 0 W/m2
03:27 70.7 °F /  21.5 °C 58.5 °F /  14.7 °C 29.7in /  1005.0hPa NNW 6.9mph /  11.1km/h 15.9mph /  25.6km/h 65% 0in /  0.0mm 0 W/m2
03:32 70.9 °F /  21.6 °C 58.6 °F /  14.8 °C 29.7in /  1005.0hPa NW 13.6mph /  21.9km/h 19.7mph /  31.7km/h 65% 0in /  0.0mm 0 W/m2
03:37 70.9 °F /  21.6 °C 58.6 °F /  14.8 °C 29.7in /  1005.0hPa NW 13mph /  20.9km/h 21.3mph /  34.3km/h 65% 0in /  0.0mm 0 W/m2
03:42 70.9 °F /  21.6 °C 58.6 °F /  14.8 °C 29.7in /  1005.0hPa NNW 8.3mph /  13.4km/h 21.3mph /  34.3km/h 65% 0in /  0.0mm 0 W/m2
03:47 70.7 °F /  21.5 °C 58.5 °F /  14.7 °C 29.7in /  1005.3hPa NNW 6.9mph /  11.1km/h 21.3mph /  34.3km/h 65% 0in /  0.0mm 0 W/m2
03:52 70.2 °F /  21.2 °C 58.3 °F /  14.6 °C 29.7in /  1005.0hPa NNW 6.9mph /  11.1km/h 16.8mph /  27.0km/h 66% 0in /  0.0mm 0 W/m2
03:57 69.8 °F /  21.0 °C 58.5 °F /  14.7 °C 29.7in /  1005.3hPa NNW 4.5mph /  7.2km/h 13mph /  20.9km/h 67% 0in /  0.0mm 0 W/m2
04:02 69.4 °F /  20.8 °C 58.8 °F /  14.9 °C 29.7in /  1005.3hPa NNW 3.8mph /  6.1km/h 9.8mph /  15.8km/h 69% 0in /  0.0mm 0 W/m2
04:07 69.1 °F /  20.6 °C 58.8 °F /  14.9 °C 29.7in /  1005.3hPa NW 4.5mph /  7.2km/h 9.2mph /  14.8km/h 70% 0in /  0.0mm 0 W/m2
04:12 68.5 °F /  20.3 °C 58.8 °F /  14.9 °C 29.7in /  1005.3hPa NW 3.8mph /  6.1km/h 10.7mph /  17.2km/h 71% 0in /  0.0mm 0 W/m2
04:17 68.5 °F /  20.3 °C 59.2 °F /  15.1 °C 29.7in /  1005.3hPa NNW 3.8mph /  6.1km/h 10.7mph /  17.2km/h 72% 0in /  0.0mm 0 W/m2
04:22 68.5 °F /  20.3 °C 59.5 °F /  15.3 °C 29.7in /  1005.6hPa NNW 9.2mph /  14.8km/h 14.5mph /  23.3km/h 73% 0in /  0.0mm 0 W/m2
04:27 68.5 °F /  20.3 °C 59.9 °F /  15.5 °C 29.7in /  1005.6hPa NNW 9.8mph /  15.8km/h 19.7mph /  31.7km/h 74% 0in /  0.0mm 0 W/m2
04:32 68.5 °F /  20.3 °C 60.6 °F /  15.9 °C 29.7in /  1005.6hPa NNW 8.3mph /  13.4km/h 19.7mph /  31.7km/h 76% 0in /  0.0mm 0 W/m2
04:37 68 °F /  20.0 °C 61 °F /  16.1 °C 29.7in /  1005.6hPa NW 5.4mph /  8.7km/h 15.9mph /  25.6km/h 78% 0in /  0.0mm 0 W/m2
04:42 67.5 °F /  19.7 °C 61.9 °F /  16.6 °C 29.7in /  1006.0hPa NNW 3.1mph /  5.0km/h 12.1mph /  19.5km/h 82% 0in /  0.0mm 0 W/m2
04:47 66.9 °F /  19.4 °C 62.1 °F /  16.7 °C 29.7in /  1006.0hPa NNW 2.2mph /  3.5km/h 9.2mph /  14.8km/h 84% 0in /  0.0mm 0 W/m2
04:52 66.7 °F /  19.3 °C 61.9 °F /  16.6 °C 29.7in /  1005.6hPa NNW 1.6mph /  2.6km/h 6.9mph /  11.1km/h 84% 0in /  0.0mm 0 W/m2
04:57 66.4 °F /  19.1 °C 61.9 °F /  16.6 °C 29.7in /  1005.6hPa Calm   6.9mph /  11.1km/h 85% 0in /  0.0mm 0 W/m2
05:02 65.8 °F /  18.8 °C 61.5 °F /  16.4 °C 29.7in /  1005.6hPa North 1.6mph /  2.6km/h 4.5mph /  7.2km/h 86% 0in /  0.0mm 0 W/m2
05:07 65.5 °F /  18.6 °C 61.5 °F /  16.4 °C 29.7in /  1005.6hPa North 1.6mph /  2.6km/h 4.5mph /  7.2km/h 87% 0in /  0.0mm 0 W/m2
05:12 65.1 °F /  18.4 °C 61.5 °F /  16.4 °C 29.7in /  1005.6hPa North 1.6mph /  2.6km/h 4.5mph /  7.2km/h 88% 0in /  0.0mm 0 W/m2
05:17 64.8 °F /  18.2 °C 61.2 °F /  16.2 °C 29.7in /  1005.6hPa North 1.6mph /  2.6km/h 4.5mph /  7.2km/h 88% 0in /  0.0mm 0 W/m2
05:22 64.4 °F /  18.0 °C 61.2 °F /  16.2 °C 29.7in /  1005.6hPa NNW 0.7mph /  1.1km/h 3.1mph /  5.0km/h 89% 0in /  0.0mm 0 W/m2
05:27 64.2 °F /  17.9 °C 61 °F /  16.1 °C 29.7in /  1005.6hPa North 2.2mph /  3.5km/h 4.5mph /  7.2km/h 89% 0in /  0.0mm 0 W/m2
05:32 64.9 °F /  18.3 °C 61.5 °F /  16.4 °C 29.7in /  1005.6hPa North 2.2mph /  3.5km/h 7.6mph /  12.2km/h 89% 0in /  0.0mm 0 W/m2
05:37 65.7 °F /  18.7 °C 62.1 °F /  16.7 °C 29.7in /  1005.6hPa North 4.5mph /  7.2km/h 9.8mph /  15.8km/h 88% 0in /  0.0mm 0 W/m2
05:42 66 °F /  18.9 °C 62.1 °F /  16.7 °C 29.7in /  1006.0hPa North 2.2mph /  3.5km/h 9.8mph /  15.8km/h 87% 0in /  0.0mm 0 W/m2
05:47 66 °F /  18.9 °C 62.1 °F /  16.7 °C 29.7in /  1006.0hPa NNE 2.2mph /  3.5km/h 9.2mph /  14.8km/h 87% 0in /  0.0mm 0 W/m2
05:52 66.2 °F /  19.0 °C 61.9 °F /  16.6 °C 29.7in /  1006.0hPa Calm   9.2mph /  14.8km/h 86% 0in /  0.0mm 0 W/m2
05:57 66 °F /  18.9 °C 62.1 °F /  16.7 °C 29.7in /  1006.0hPa North 1.6mph /  2.6km/h 8.3mph /  13.4km/h 87% 0in /  0.0mm 0 W/m2
06:02 65.8 °F /  18.8 °C 61.9 °F /  16.6 °C 29.7in /  1006.0hPa Calm   6mph /  9.7km/h 87% 0in /  0.0mm 0 W/m2
06:07 65.8 °F /  18.8 °C 61.9 °F /  16.6 °C 29.7in /  1006.0hPa Calm   3.8mph /  6.1km/h 87% 0in /  0.0mm 0 W/m2
06:17 65.5 °F /  18.6 °C 61.5 °F /  16.4 °C 29.7in /  1006.0hPa Calm   0.7mph /  1.1km/h 87% 0in /  0.0mm 0 W/m2
06:22 65.3 °F /  18.5 °C 61.3 °F /  16.3 °C 29.7in /  1006.0hPa Calm   0.7mph /  1.1km/h 87% 0in /  0.0mm 0 W/m2
06:27 65.1 °F /  18.4 °C 61.5 °F /  16.4 °C 29.7in /  1006.0hPa NW 1.6mph /  2.6km/h 3.1mph /  5.0km/h 88% 0in /  0.0mm 0 W/m2
06:32 64.8 °F /  18.2 °C 61.2 °F /  16.2 °C 29.7in /  1005.6hPa Calm   3.1mph /  5.0km/h 88% 0in /  0.0mm 0 W/m2
06:37 64.4 °F /  18.0 °C 60.8 °F /  16.0 °C 29.7in /  1005.6hPa Calm   2.2mph /  3.5km/h 88% 0in /  0.0mm 0 W/m2
06:42 64.2 °F /  17.9 °C 60.3 °F /  15.7 °C 29.7in /  1005.6hPa Calm   1.6mph /  2.6km/h 87% 0in /  0.0mm 0 W/m2
06:47 64.6 °F /  18.1 °C 60.3 °F /  15.7 °C 29.7in /  1005.6hPa North 2.2mph /  3.5km/h 3.8mph /  6.1km/h 86% 0in /  0.0mm 0 W/m2
06:52 65.3 °F /  18.5 °C 60.4 °F /  15.8 °C 29.7in /  1005.3hPa North 1.6mph /  2.6km/h 6mph /  9.7km/h 84% 0in /  0.0mm 0 W/m2
06:57 65.8 °F /  18.8 °C 59.9 °F /  15.5 °C 29.7in /  1005.6hPa North 0.7mph /  1.1km/h 6mph /  9.7km/h 81% 0in /  0.0mm 0 W/m2
07:02 65.8 °F /  18.8 °C 59.2 °F /  15.1 °C 29.7in /  1005.6hPa Calm   5.4mph /  8.7km/h 79% 0in /  0.0mm 0 W/m2
07:07 65.7 °F /  18.7 °C 59 °F /  15.0 °C 29.7in /  1005.6hPa Calm   3.8mph /  6.1km/h 79% 0in /  0.0mm 0 W/m2
07:12 64.9 °F /  18.3 °C 59 °F /  15.0 °C 29.7in /  1005.6hPa Calm   2.2mph /  3.5km/h 81% 0in /  0.0mm 0 W/m2
07:17 64.4 °F /  18.0 °C 59.2 °F /  15.1 °C 29.7in /  1006.0hPa Calm   2.2mph /  3.5km/h 83% 0in /  0.0mm 0 W/m2
07:22 64 °F /  17.8 °C 59.2 °F /  15.1 °C 29.7in /  1005.6hPa Calm   2.2mph /  3.5km/h 84% 0in /  0.0mm 0 W/m2
07:27 63.7 °F /  17.6 °C 58.8 °F /  14.9 °C 29.7in /  1005.6hPa Calm     84% 0in /  0.0mm 0 W/m2
07:32 63.1 °F /  17.3 °C 58.6 °F /  14.8 °C 29.7in /  1005.6hPa Calm     85% 0in /  0.0mm 0 W/m2
07:37 62.8 °F /  17.1 °C 58.5 °F /  14.7 °C 29.7in /  1005.6hPa Calm     86% 0in /  0.0mm 0 W/m2
07:42 62.6 °F /  17.0 °C 58.6 °F /  14.8 °C 29.7in /  1005.6hPa Calm     87% 0in /  0.0mm 0 W/m2
07:47 62.4 °F /  16.9 °C 59.2 °F /  15.1 °C 29.7in /  1005.6hPa Calm     89% 0in /  0.0mm 0 W/m2
07:52 62.2 °F /  16.8 °C 59 °F /  15.0 °C 29.7in /  1005.6hPa Calm     89% 0in /  0.0mm 0 W/m2
07:57 62.1 °F /  16.7 °C 58.8 °F /  14.9 °C 29.7in /  1005.6hPa Calm     89% 0in /  0.0mm 0 W/m2
08:02 61.7 °F /  16.5 °C 58.5 °F /  14.7 °C 29.7in /  1005.3hPa Calm     89% 0in /  0.0mm 0 W/m2
08:07 61.7 °F /  16.5 °C 58.8 °F /  14.9 °C 29.7in /  1005.3hPa Calm     90% 0in /  0.0mm 0 W/m2
08:12 61.5 °F /  16.4 °C 58.6 °F /  14.8 °C 29.7in /  1005.3hPa Calm     90% 0in /  0.0mm 0 W/m2
08:17 61.3 °F /  16.3 °C 58.5 °F /  14.7 °C 29.7in /  1005.3hPa Calm     90% 0in /  0.0mm 0 W/m2
08:22 61.3 °F /  16.3 °C 58.5 °F /  14.7 °C 29.7in /  1005.3hPa Calm   3.1mph /  5.0km/h 90% 0in /  0.0mm 0 W/m2
08:27 61.5 °F /  16.4 °C 58.8 °F /  14.9 °C 29.7in /  1005.3hPa Calm   3.1mph /  5.0km/h 91% 0in /  0.0mm 0 W/m2
08:32 61.3 °F /  16.3 °C 58.5 °F /  14.7 °C 29.7in /  1005.0hPa Calm   2.2mph /  3.5km/h 90% 0in /  0.0mm 0 W/m2
08:37 61.2 °F /  16.2 °C 58.3 °F /  14.6 °C 29.7in /  1005.3hPa Calm     90% 0in /  0.0mm 0 W/m2
08:42 61 °F /  16.1 °C 58.3 °F /  14.6 °C 29.7in /  1005.3hPa Calm   3.1mph /  5.0km/h 91% 0in /  0.0mm 0 W/m2
08:47 61 °F /  16.1 °C 58.3 °F /  14.6 °C 29.7in /  1005.0hPa Calm   3.1mph /  5.0km/h 91% 0in /  0.0mm 0 W/m2
08:52 60.6 °F /  15.9 °C 58.3 °F /  14.6 °C 29.7in /  1005.0hPa Calm   1.6mph /  2.6km/h 92% 0in /  0.0mm 0 W/m2
08:57 60.3 °F /  15.7 °C 58.3 °F /  14.6 °C 29.7in /  1005.3hPa Calm   1.6mph /  2.6km/h 93% 0in /  0.0mm 0 W/m2
09:02 60.1 °F /  15.6 °C 58.1 °F /  14.5 °C 29.7in /  1005.0hPa Calm   0.7mph /  1.1km/h 93% 0in /  0.0mm 0 W/m2
09:07 59.7 °F /  15.4 °C 57.7 °F /  14.3 °C 29.7in /  1005.0hPa Calm   0.7mph /  1.1km/h 93% 0in /  0.0mm 0 W/m2
09:12 59.7 °F /  15.4 °C 57.9 °F /  14.4 °C 29.7in /  1005.0hPa Calm   0.7mph /  1.1km/h 94% 0in /  0.0mm 0 W/m2
09:17 59.7 °F /  15.4 °C 57.9 °F /  14.4 °C 29.7in /  1005.0hPa Calm   0.7mph /  1.1km/h 94% 0in /  0.0mm 0 W/m2
09:22 59.7 °F /  15.4 °C 58.3 °F /  14.6 °C 29.7in /  1005.0hPa Calm   0.7mph /  1.1km/h 95% 0in /  0.0mm 0 W/m2
09:27 59.7 °F /  15.4 °C 58.3 °F /  14.6 °C 29.7in /  1005.0hPa Calm   1.6mph /  2.6km/h 95% 0in /  0.0mm 0 W/m2
09:32 59.5 °F /  15.3 °C 58.1 °F /  14.5 °C 29.7in /  1005.0hPa NNW 0.7mph /  1.1km/h 3.1mph /  5.0km/h 95% 0in /  0.0mm 0 W/m2
09:37 59.5 °F /  15.3 °C 58.1 °F /  14.5 °C 29.7in /  1005.3hPa NW 0.7mph /  1.1km/h 4.5mph /  7.2km/h 95% 0in /  0.0mm 0 W/m2
09:42 59.9 °F /  15.5 °C 58.3 °F /  14.6 °C 29.7in /  1005.0hPa NNW 2.2mph /  3.5km/h 5.4mph /  8.7km/h 94% 0in /  0.0mm 0 W/m2
09:47 60.6 °F /  15.9 °C 57.7 °F /  14.3 °C 29.7in /  1005.0hPa NNW 3.1mph /  5.0km/h 6mph /  9.7km/h 90% 0in /  0.0mm 0 W/m2
09:52 62.2 °F /  16.8 °C 57 °F /  13.9 °C 29.7in /  1005.0hPa NW 7.6mph /  12.2km/h 9.8mph /  15.8km/h 83% 0in /  0.0mm 0 W/m2
09:57 63.7 °F /  17.6 °C 55.6 °F /  13.1 °C 29.7in /  1005.3hPa NNW 4.5mph /  7.2km/h 11.4mph /  18.3km/h 75% 0in /  0.0mm 0 W/m2
10:02 64.2 °F /  17.9 °C 55 °F /  12.8 °C 29.7in /  1005.3hPa NNW 4.5mph /  7.2km/h 11.4mph /  18.3km/h 72% 0in /  0.0mm 0 W/m2
10:07 64.8 °F /  18.2 °C 54.9 °F /  12.7 °C 29.7in /  1005.3hPa NW 5.4mph /  8.7km/h 11.4mph /  18.3km/h 70% 0in /  0.0mm 0 W/m2
10:12 65.1 °F /  18.4 °C 54.3 °F /  12.4 °C 29.7in /  1005.3hPa NW 5.4mph /  8.7km/h 13mph /  20.9km/h 68% 0in /  0.0mm 0 W/m2
10:17 65.1 °F /  18.4 °C 54.3 °F /  12.4 °C 29.7in /  1005.3hPa NW 6mph /  9.7km/h 13mph /  20.9km/h 68% 0in /  0.0mm 0 W/m2
10:22 65.1 °F /  18.4 °C 54 °F /  12.2 °C 29.7in /  1005.3hPa NW 3.8mph /  6.1km/h 13mph /  20.9km/h 67% 0in /  0.0mm 0 W/m2
10:27 64.6 °F /  18.1 °C 53.8 °F /  12.1 °C 29.7in /  1005.3hPa NW 3.8mph /  6.1km/h 11.4mph /  18.3km/h 68% 0in /  0.0mm 0 W/m2
10:32 63.9 °F /  17.7 °C 54 °F /  12.2 °C 29.7in /  1005.3hPa NW 3.8mph /  6.1km/h 8.3mph /  13.4km/h 70% 0in /  0.0mm 0 W/m2
10:37 63.7 °F /  17.6 °C 53.8 °F /  12.1 °C 29.7in /  1005.3hPa NW 2.2mph /  3.5km/h 8.3mph /  13.4km/h 70% 0in /  0.0mm 0 W/m2
10:42 63.3 °F /  17.4 °C 53.8 °F /  12.1 °C 29.7in /  1005.3hPa NW 1.6mph /  2.6km/h 6mph /  9.7km/h 71% 0in /  0.0mm 0 W/m2
10:47 63 °F /  17.2 °C 53.4 °F /  11.9 °C 29.7in /  1005.3hPa NW 0.7mph /  1.1km/h 6mph /  9.7km/h 71% 0in /  0.0mm 0 W/m2
10:52 62.6 °F /  17.0 °C 53.4 °F /  11.9 °C 29.7in /  1005.3hPa NW 3.8mph /  6.1km/h 5.4mph /  8.7km/h 72% 0in /  0.0mm 0 W/m2
10:57 62.2 °F /  16.8 °C 53.4 °F /  11.9 °C 29.7in /  1005.0hPa Calm   5.4mph /  8.7km/h 73% 0in /  0.0mm 0 W/m2
11:02 61.9 °F /  16.6 °C 53.4 °F /  11.9 °C 29.7in /  1005.0hPa NW 1.6mph /  2.6km/h 5.4mph /  8.7km/h 74% 0in /  0.0mm 0 W/m2
11:07 61.5 °F /  16.4 °C 53.2 °F /  11.8 °C 29.7in /  1005.0hPa NW 1.6mph /  2.6km/h 4.5mph /  7.2km/h 74% 0in /  0.0mm 0 W/m2
11:12 61.5 °F /  16.4 °C 53.4 °F /  11.9 °C 29.7in /  1005.0hPa Calm   4.5mph /  7.2km/h 75% 0in /  0.0mm 0 W/m2
11:17 61.3 °F /  16.3 °C 53.4 °F /  11.9 °C 29.7in /  1005.0hPa Calm   4.5mph /  7.2km/h 75% 0in /  0.0mm 0 W/m2
11:22 61.2 °F /  16.2 °C 53.2 °F /  11.8 °C 29.7in /  1004.6hPa NNW 2.2mph /  3.5km/h 4.5mph /  7.2km/h 75% 0in /  0.0mm 0 W/m2
11:27 61.2 °F /  16.2 °C 53.2 °F /  11.8 °C 29.7in /  1004.6hPa NNW 3.1mph /  5.0km/h 6mph /  9.7km/h 75% 0in /  0.0mm 0 W/m2
11:32 61 °F /  16.1 °C 52.5 °F /  11.4 °C 29.7in /  1004.6hPa NNW 3.8mph /  6.1km/h 6mph /  9.7km/h 74% 0in /  0.0mm 0 W/m2
11:37 60.8 °F /  16.0 °C 52.2 °F /  11.2 °C 29.7in /  1004.6hPa NNW 3.8mph /  6.1km/h 7.6mph /  12.2km/h 73% 0in /  0.0mm 0 W/m2
11:42 60.6 °F /  15.9 °C 52.3 °F /  11.3 °C 29.7in /  1004.6hPa North 3.8mph /  6.1km/h 7.6mph /  12.2km/h 74% 0in /  0.0mm 0 W/m2
11:47 60.4 °F /  15.8 °C 52.5 °F /  11.4 °C 29.7in /  1004.6hPa North 3.1mph /  5.0km/h 9.8mph /  15.8km/h 75% 0in /  0.0mm 0 W/m2
11:52 60.4 °F /  15.8 °C 52.5 °F /  11.4 °C 29.7in /  1004.6hPa NNW 3.8mph /  6.1km/h 9.8mph /  15.8km/h 75% 0in /  0.0mm 0 W/m2
11:57 60.4 °F /  15.8 °C 52.9 °F /  11.6 °C 29.7in /  1004.6hPa NNW 3.1mph /  5.0km/h 9.2mph /  14.8km/h 76% 0in /  0.0mm 0 W/m2
12:02 60.3 °F /  15.7 °C 52.7 °F /  11.5 °C 29.7in /  1004.6hPa NNW 3.1mph /  5.0km/h 8.3mph /  13.4km/h 76% 0in /  0.0mm 0 W/m2
12:07 60.1 °F /  15.6 °C 52.5 °F /  11.4 °C 29.7in /  1005.0hPa NNW 2.2mph /  3.5km/h 6.9mph /  11.1km/h 76% 0in /  0.0mm 0 W/m2
12:12 59.7 °F /  15.4 °C 52.5 °F /  11.4 °C 29.7in /  1005.0hPa NNW 3.8mph /  6.1km/h 6.9mph /  11.1km/h 77% 0in /  0.0mm 0 W/m2
12:17 59.5 °F /  15.3 °C 52.3 °F /  11.3 °C 29.7in /  1005.0hPa NW 1.6mph /  2.6km/h 6mph /  9.7km/h 77% 0in /  0.0mm 0 W/m2
12:22 59 °F /  15.0 °C 52.2 °F /  11.2 °C 29.7in /  1005.0hPa NW 2.2mph /  3.5km/h 5.4mph /  8.7km/h 78% 0in /  0.0mm 0 W/m2
12:43 58.5 °F /  14.7 °C 52.7 °F /  11.5 °C 29.7in /  1004.6hPa NNW 3.1mph /  5.0km/h 6mph /  9.7km/h 81% 0in /  0.0mm 0 W/m2
12:48 58.1 °F /  14.5 °C 52.3 °F /  11.3 °C 29.7in /  1004.6hPa North 4.5mph /  7.2km/h 6.9mph /  11.1km/h 81% 0in /  0.0mm 0 W/m2
12:53 58.1 °F /  14.5 °C 52.3 °F /  11.3 °C 29.7in /  1004.6hPa NNW 3.8mph /  6.1km/h 6.9mph /  11.1km/h 81% 0in /  0.0mm 0 W/m2
12:58 58.3 °F /  14.6 °C 52.5 °F /  11.4 °C 29.7in /  1004.6hPa NNW 3.8mph /  6.1km/h 7.6mph /  12.2km/h 81% 0in /  0.0mm 0 W/m2
13:03 58.5 °F /  14.7 °C 52.7 °F /  11.5 °C 29.7in /  1004.6hPa NNW 4.5mph /  7.2km/h 8.3mph /  13.4km/h 81% 0in /  0.0mm 0 W/m2
13:08 59.2 °F /  15.1 °C 52.3 °F /  11.3 °C 29.7in /  1004.6hPa North 5.4mph /  8.7km/h 10.7mph /  17.2km/h 78% 0in /  0.0mm 0 W/m2
13:13 59.5 °F /  15.3 °C 52.3 °F /  11.3 °C 29.7in /  1004.6hPa North 6mph /  9.7km/h 10.7mph /  17.2km/h 77% 0in /  0.0mm 0 W/m2
13:18 59.9 °F /  15.5 °C 52 °F /  11.1 °C 29.7in /  1004.6hPa NNW 3.8mph /  6.1km/h 10.7mph /  17.2km/h 75% 0in /  0.0mm 0 W/m2
13:23 59.9 °F /  15.5 °C 52 °F /  11.1 °C 29.7in /  1004.6hPa North 2.2mph /  3.5km/h 10.7mph /  17.2km/h 75% 0in /  0.0mm 0 W/m2
13:28 59.9 °F /  15.5 °C 52 °F /  11.1 °C 29.7in /  1004.6hPa North 0.7mph /  1.1km/h 7.6mph /  12.2km/h 75% 0in /  0.0mm 0 W/m2
13:33 59.7 °F /  15.4 °C 51.8 °F /  11.0 °C 29.7in /  1004.3hPa Calm   5.4mph /  8.7km/h 75% 0in /  0.0mm 0 W/m2
13:38 58.8 °F /  14.9 °C 51.3 °F /  10.7 °C 29.7in /  1004.3hPa Calm   1.6mph /  2.6km/h 76% 0in /  0.0mm 0 W/m2
13:43 58.3 °F /  14.6 °C 51.1 °F /  10.6 °C 29.7in /  1004.3hPa Calm     77% 0in /  0.0mm 0 W/m2
13:48 57.9 °F /  14.4 °C 51.1 °F /  10.6 °C 29.7in /  1004.6hPa Calm     78% 0in /  0.0mm 0 W/m2
13:53 57.6 °F /  14.2 °C 50.7 °F /  10.4 °C 29.7in /  1004.3hPa Calm     78% 0in /  0.0mm 0 W/m2
13:58 57.4 °F /  14.1 °C 50.9 °F /  10.5 °C 29.7in /  1004.3hPa Calm     79% 0in /  0.0mm 0 W/m2
14:03 57.2 °F /  14.0 °C 50.7 °F /  10.4 °C 29.7in /  1004.3hPa Calm     79% 0in /  0.0mm 0 W/m2
14:08 57 °F /  13.9 °C 51.3 °F /  10.7 °C 29.7in /  1004.3hPa Calm     81% 0in /  0.0mm 0 W/m2
14:13 56.5 °F /  13.6 °C 50.7 °F /  10.4 °C 29.6in /  1003.9hPa Calm     81% 0in /  0.0mm 0 W/m2
14:18 56.1 °F /  13.4 °C 50.4 °F /  10.2 °C 29.6in /  1003.9hPa Calm     81% 0in /  0.0mm 0 W/m2
14:23 55.8 °F /  13.2 °C 50.4 °F /  10.2 °C 29.7in /  1004.3hPa Calm     82% 0in /  0.0mm 0 W/m2
14:28 55.2 °F /  12.9 °C 50.2 °F /  10.1 °C 29.6in /  1003.9hPa Calm     83% 0in /  0.0mm 0 W/m2
14:33 54.7 °F /  12.6 °C 49.8 °F /  9.9 °C 29.6in /  1003.9hPa Calm   0.7mph /  1.1km/h 84% 0in /  0.0mm 0 W/m2
14:38 54.5 °F /  12.5 °C 50.4 °F /  10.2 °C 29.6in /  1003.9hPa Calm   2.2mph /  3.5km/h 86% 0in /  0.0mm 0 W/m2
14:43 54.5 °F /  12.5 °C 50.7 °F /  10.4 °C 29.6in /  1003.9hPa Calm   2.2mph /  3.5km/h 87% 0in /  0.0mm 0 W/m2
14:48 54.3 °F /  12.4 °C 50.7 °F /  10.4 °C 29.6in /  1003.9hPa Calm     88% 0in /  0.0mm 3 W/m2
14:53 54.1 °F /  12.3 °C 50.7 °F /  10.4 °C 29.6in /  1003.9hPa Calm   1.6mph /  2.6km/h 88% 0in /  0.0mm 7 W/m2
14:58 54 °F /  12.2 °C 50.7 °F /  10.4 °C 29.6in /  1003.9hPa Calm   1.6mph /  2.6km/h 89% 0in /  0.0mm 10 W/m2
15:03 54.1 °F /  12.3 °C 51.3 °F /  10.7 °C 29.7in /  1004.3hPa Calm     90% 0in /  0.0mm 23 W/m2
15:08 54.7 °F /  12.6 °C 51.8 °F /  11.0 °C 29.7in /  1004.3hPa NW 0.7mph /  1.1km/h 2.2mph /  3.5km/h 90% 0in /  0.0mm 62 W/m2
15:13 55.2 °F /  12.9 °C 52.3 °F /  11.3 °C 29.7in /  1004.3hPa Calm   2.2mph /  3.5km/h 90% 0in /  0.0mm 71 W/m2
15:18 56.5 °F /  13.6 °C 53.2 °F /  11.8 °C 29.7in /  1004.3hPa Calm   2.2mph /  3.5km/h 89% 0in /  0.0mm 40 W/m2
15:38 60.1 °F /  15.6 °C 54.9 °F /  12.7 °C 29.7in /  1004.6hPa Calm     83% 0in /  0.0mm 127 W/m2
15:43 61.2 °F /  16.2 °C 55 °F /  12.8 °C 29.7in /  1004.3hPa Calm     80% 0in /  0.0mm 142 W/m2
15:48 63 °F /  17.2 °C 55.8 °F /  13.2 °C 29.7in /  1004.6hPa Calm     77% 0in /  0.0mm 155 W/m2
15:53 65.3 °F /  18.5 °C 57.9 °F /  14.4 °C 29.7in /  1004.6hPa Calm     77% 0in /  0.0mm 181 W/m2
15:58 67.3 °F /  19.6 °C 57.9 °F /  14.4 °C 29.7in /  1005.0hPa Calm     72% 0in /  0.0mm 207 W/m2
16:03 67.6 °F /  19.8 °C 55.9 °F /  13.3 °C 29.7in /  1005.0hPa Calm     66% 0in /  0.0mm 93 W/m2
16:08 66 °F /  18.9 °C 54 °F /  12.2 °C 29.7in /  1005.0hPa Calm   0.7mph /  1.1km/h 65% 0in /  0.0mm 76 W/m2
16:13 64.8 °F /  18.2 °C 53.6 °F /  12.0 °C 29.7in /  1005.3hPa Calm   0.7mph /  1.1km/h 67% 0in /  0.0mm 41 W/m2
16:18 63.9 °F /  17.7 °C 54 °F /  12.2 °C 29.7in /  1005.3hPa NNW 0.7mph /  1.1km/h 3.1mph /  5.0km/h 70% 0in /  0.0mm 57 W/m2
16:23 63.1 °F /  17.3 °C 53.6 °F /  12.0 °C 29.7in /  1005.3hPa Calm   3.1mph /  5.0km/h 71% 0in /  0.0mm 36 W/m2
16:28 62.8 °F /  17.1 °C 53.6 °F /  12.0 °C 29.7in /  1005.3hPa Calm   3.1mph /  5.0km/h 72% 0in /  0.0mm 28 W/m2
16:33 62.6 °F /  17.0 °C 53.8 °F /  12.1 °C 29.7in /  1005.6hPa Calm     73% 0in /  0.0mm 29 W/m2
16:38 62.4 °F /  16.9 °C 54 °F /  12.2 °C 29.7in /  1005.6hPa NNW 1.6mph /  2.6km/h 3.1mph /  5.0km/h 74% 0in /  0.0mm 30 W/m2
16:43 62.2 °F /  16.8 °C 54.1 °F /  12.3 °C 29.7in /  1005.6hPa NW 0.7mph /  1.1km/h 3.8mph /  6.1km/h 75% 0in /  0.0mm 46 W/m2
16:48 62.4 °F /  16.9 °C 54.3 °F /  12.4 °C 29.7in /  1005.6hPa Calm   3.8mph /  6.1km/h 75% 0in /  0.0mm 51 W/m2
16:53 62.6 °F /  17.0 °C 54.7 °F /  12.6 °C 29.7in /  1005.6hPa Calm   3.8mph /  6.1km/h 75% 0in /  0.0mm 56 W/m2
16:58 62.8 °F /  17.1 °C 54.9 °F /  12.7 °C 29.7in /  1005.6hPa Calm   1.6mph /  2.6km/h 75% 0in /  0.0mm 56 W/m2
17:03 63.1 °F /  17.3 °C 55 °F /  12.8 °C 29.7in /  1005.6hPa West 1.6mph /  2.6km/h 6.9mph /  11.1km/h 75% 0in /  0.0mm 85 W/m2
17:08 63.5 °F /  17.5 °C 55.8 °F /  13.2 °C 29.7in /  1005.6hPa West 1.6mph /  2.6km/h 6.9mph /  11.1km/h 76% 0in /  0.0mm 91 W/m2
17:13 63.5 °F /  17.5 °C 56.1 °F /  13.4 °C 29.7in /  1005.6hPa WSW 5.4mph /  8.7km/h 9.2mph /  14.8km/h 77% 0in /  0.0mm 102 W/m2
17:18 63.7 °F /  17.6 °C 55.9 °F /  13.3 °C 29.7in /  1005.6hPa Calm   9.2mph /  14.8km/h 76% 0in /  0.0mm 99 W/m2
17:23 63.9 °F /  17.7 °C 56.1 °F /  13.4 °C 29.7in /  1006.0hPa Calm   9.2mph /  14.8km/h 76% 0in /  0.0mm 99 W/m2
17:28 64.2 °F /  17.9 °C 56.5 °F /  13.6 °C 29.7in /  1006.0hPa WSW 5.4mph /  8.7km/h 6.9mph /  11.1km/h 76% 0in /  0.0mm 93 W/m2
17:33 64.2 °F /  17.9 °C 56.1 °F /  13.4 °C 29.7in /  1006.0hPa SW 3.8mph /  6.1km/h 6.9mph /  11.1km/h 75% 0in /  0.0mm 73 W/m2
17:38 64 °F /  17.8 °C 55.2 °F /  12.9 °C 29.7in /  1006.0hPa SW 3.8mph /  6.1km/h 9.2mph /  14.8km/h 73% 0in /  0.0mm 114 W/m2
17:43 64.2 °F /  17.9 °C 55.4 °F /  13.0 °C 29.7in /  1006.3hPa WSW 6mph /  9.7km/h 9.8mph /  15.8km/h 73% 0in /  0.0mm 127 W/m2
17:48 64.9 °F /  18.3 °C 55.8 °F /  13.2 °C 29.7in /  1006.3hPa WSW 6mph /  9.7km/h 11.4mph /  18.3km/h 72% 0in /  0.0mm 99 W/m2
17:53 65.8 °F /  18.8 °C 55.8 °F /  13.2 °C 29.7in /  1006.3hPa SW 5.4mph /  8.7km/h 11.4mph /  18.3km/h 70% 0in /  0.0mm 72 W/m2
17:58 67.1 °F /  19.5 °C 55.4 °F /  13.0 °C 29.7in /  1006.3hPa SW 3.8mph /  6.1km/h 9.2mph /  14.8km/h 66% 0in /  0.0mm 69 W/m2
18:03 67.8 °F /  19.9 °C 55.6 °F /  13.1 °C 29.7in /  1006.3hPa SW 3.8mph /  6.1km/h 8.3mph /  13.4km/h 65% 0in /  0.0mm 67 W/m2
18:08 69.1 °F /  20.6 °C 54.7 °F /  12.6 °C 29.7in /  1006.7hPa SW 3.8mph /  6.1km/h 6.9mph /  11.1km/h 60% 0in /  0.0mm 68 W/m2
18:13 67.8 °F /  19.9 °C 53.4 °F /  11.9 °C 29.7in /  1006.7hPa SSW 2.2mph /  3.5km/h 8.3mph /  13.4km/h 60% 0in /  0.0mm 71 W/m2
18:18 67.8 °F /  19.9 °C 54 °F /  12.2 °C 29.7in /  1006.7hPa SW 4.5mph /  7.2km/h 8.3mph /  13.4km/h 61% 0in /  0.0mm 66 W/m2
18:23 66.4 °F /  19.1 °C 54 °F /  12.2 °C 29.7in /  1006.3hPa SSW 4.5mph /  7.2km/h 9.2mph /  14.8km/h 64% 0in /  0.0mm 67 W/m2
18:28 67.3 °F /  19.6 °C 55.6 °F /  13.1 °C 29.7in /  1006.7hPa South 2.2mph /  3.5km/h 9.2mph /  14.8km/h 66% 0in /  0.0mm 88 W/m2
18:33 67.8 °F /  19.9 °C 54.9 °F /  12.7 °C 29.7in /  1007.0hPa SSW 3.1mph /  5.0km/h 7.6mph /  12.2km/h 63% 0in /  0.0mm 130 W/m2
18:38 68.4 °F /  20.2 °C 54.9 °F /  12.7 °C 29.7in /  1007.0hPa SSW 4.5mph /  7.2km/h 9.2mph /  14.8km/h 62% 0in /  0.0mm 114 W/m2
18:43 66.7 °F /  19.3 °C 54.1 °F /  12.3 °C 29.7in /  1006.7hPa South 4.5mph /  7.2km/h 9.2mph /  14.8km/h 64% 0in /  0.0mm 405 W/m2
18:48 67.6 °F /  19.8 °C 55 °F /  12.8 °C 29.7in /  1006.7hPa South 0.7mph /  1.1km/h 8.3mph /  13.4km/h 64% 0in /  0.0mm 138 W/m2
18:53 68.5 °F /  20.3 °C 55.6 °F /  13.1 °C 29.7in /  1007.0hPa South 3.1mph /  5.0km/h 6mph /  9.7km/h 63% 0in /  0.0mm 406 W/m2
18:58 68.4 °F /  20.2 °C 54.3 °F /  12.4 °C 29.7in /  1007.0hPa Calm   5.4mph /  8.7km/h 61% 0in /  0.0mm 74 W/m2
19:03 67.8 °F /  19.9 °C 54.3 °F /  12.4 °C 29.7in /  1006.7hPa SW 4.5mph /  7.2km/h 6.9mph /  11.1km/h 62% 0in /  0.0mm 123 W/m2
19:08 67.3 °F /  19.6 °C 50.5 °F /  10.3 °C 29.7in /  1006.7hPa West 2.2mph /  3.5km/h 10.7mph /  17.2km/h 55% 0in /  0.0mm 358 W/m2
19:13 67.8 °F /  19.9 °C 48.6 °F /  9.2 °C 29.7in /  1006.7hPa WNW 10.7mph /  17.2km/h 15.2mph /  24.5km/h 50% 0in /  0.0mm 158 W/m2
19:18 68.4 °F /  20.2 °C 46.8 °F /  8.2 °C 29.7in /  1006.7hPa NW 8.3mph /  13.4km/h 15.2mph /  24.5km/h 46% 0in /  0.0mm 159 W/m2
19:23 68.4 °F /  20.2 °C 46.8 °F /  8.2 °C 29.7in /  1006.7hPa NW 6.9mph /  11.1km/h 16.8mph /  27.0km/h 46% 0in /  0.0mm 463 W/m2
19:28 68.9 °F /  20.5 °C 47.3 °F /  8.5 °C 29.7in /  1006.7hPa NW 5.4mph /  8.7km/h 16.8mph /  27.0km/h 46% 0in /  0.0mm 465 W/m2
19:33 69.4 °F /  20.8 °C 46.6 °F /  8.1 °C 29.7in /  1006.7hPa NW 5.4mph /  8.7km/h 17.4mph /  28.0km/h 44% 0in /  0.0mm 486 W/m2
19:38 69.4 °F /  20.8 °C 46 °F /  7.8 °C 29.7in /  1006.7hPa NW 6.9mph /  11.1km/h 17.4mph /  28.0km/h 43% 0in /  0.0mm 469 W/m2
19:43 69.8 °F /  21.0 °C 45.7 °F /  7.6 °C 29.7in /  1006.7hPa NW 7.6mph /  12.2km/h 17.4mph /  28.0km/h 42% 0in /  0.0mm 435 W/m2
19:48 69.8 °F /  21.0 °C 44.4 °F /  6.9 °C 29.7in /  1006.7hPa WNW 13mph /  20.9km/h 17.4mph /  28.0km/h 40% 0in /  0.0mm 414 W/m2
19:53 69.8 °F /  21.0 °C 45.7 °F /  7.6 °C 29.7in /  1006.7hPa NW 6.9mph /  11.1km/h 17.4mph /  28.0km/h 42% 0in /  0.0mm 420 W/m2
19:58 69.1 °F /  20.6 °C 43.2 °F /  6.2 °C 29.7in /  1006.7hPa NW 7.6mph /  12.2km/h 21.3mph /  34.3km/h 39% 0in /  0.0mm 417 W/m2
20:03 68.9 °F /  20.5 °C 43.5 °F /  6.4 °C 29.7in /  1006.7hPa NW 6.9mph /  11.1km/h 21.3mph /  34.3km/h 40% 0in /  0.0mm 393 W/m2
20:08 68.5 °F /  20.3 °C 42.6 °F /  5.9 °C 29.7in /  1006.7hPa WNW 9.2mph /  14.8km/h 15.2mph /  24.5km/h 39% 0in /  0.0mm 93 W/m2
20:13 67.3 °F /  19.6 °C 43.3 °F /  6.3 °C 29.7in /  1006.7hPa WNW 6mph /  9.7km/h 15.2mph /  24.5km/h 42% 0in /  0.0mm 439 W/m2
20:18 68 °F /  20.0 °C 44.1 °F /  6.7 °C 29.7in /  1006.3hPa WNW 3.1mph /  5.0km/h 14.5mph /  23.3km/h 42% 0in /  0.0mm 185 W/m2
20:23 69.1 °F /  20.6 °C 43.9 °F /  6.6 °C 29.7in /  1006.3hPa WNW 3.8mph /  6.1km/h 15.2mph /  24.5km/h 40% 0in /  0.0mm 480 W/m2
20:28 70.3 °F /  21.3 °C 45 °F /  7.2 °C 29.7in /  1006.3hPa West 3.8mph /  6.1km/h 15.2mph /  24.5km/h 40% 0in /  0.0mm 447 W/m2
20:33 71.1 °F /  21.7 °C 45.5 °F /  7.5 °C 29.7in /  1006.3hPa West 3.8mph /  6.1km/h 12.1mph /  19.5km/h 40% 0in /  0.0mm 422 W/m2
20:38 70 °F /  21.1 °C 41.7 °F /  5.4 °C 29.7in /  1006.3hPa WNW 8.3mph /  13.4km/h 17.4mph /  28.0km/h 36% 0in /  0.0mm 405 W/m2
20:43 69.8 °F /  21.0 °C 43.2 °F /  6.2 °C 29.7in /  1006.0hPa NW 8.3mph /  13.4km/h 17.4mph /  28.0km/h 38% 0in /  0.0mm 402 W/m2
20:48 69.4 °F /  20.8 °C 44.8 °F /  7.1 °C 29.7in /  1006.3hPa NW 12.1mph /  19.5km/h 23.5mph /  37.8km/h 41% 0in /  0.0mm 394 W/m2
20:53 68.9 °F /  20.5 °C 45.5 °F /  7.5 °C 29.7in /  1006.0hPa NW 8.3mph /  13.4km/h 23.5mph /  37.8km/h 43% 0in /  0.0mm 391 W/m2
20:58 68.4 °F /  20.2 °C 43.2 °F /  6.2 °C 29.7in /  1006.0hPa NW 10.7mph /  17.2km/h 22.1mph /  35.6km/h 40% 0in /  0.0mm 381 W/m2
21:03 68.7 °F /  20.4 °C 44.8 °F /  7.1 °C 29.7in /  1006.0hPa NNW 8.3mph /  13.4km/h 19.7mph /  31.7km/h 42% 0in /  0.0mm 371 W/m2
21:08 68.9 °F /  20.5 °C 45 °F /  7.2 °C 29.7in /  1006.0hPa NW 18.3mph /  29.4km/h 24.4mph /  39.3km/h 42% 0in /  0.0mm 355 W/m2
21:13 68.5 °F /  20.3 °C 44.6 °F /  7.0 °C 29.7in /  1006.0hPa NW 15.9mph /  25.6km/h 27.3mph /  43.9km/h 42% 0in /  0.0mm 318 W/m2
21:18 68.4 °F /  20.2 °C 44.4 °F /  6.9 °C 29.7in /  1006.0hPa NW 7.6mph /  12.2km/h 27.3mph /  43.9km/h 42% 0in /  0.0mm 280 W/m2
21:23 68.4 °F /  20.2 °C 45 °F /  7.2 °C 29.7in /  1006.0hPa NW 10.7mph /  17.2km/h 26.6mph /  42.8km/h 43% 0in /  0.0mm 285 W/m2
21:28 68.5 °F /  20.3 °C 44.6 °F /  7.0 °C 29.7in /  1006.3hPa NW 9.2mph /  14.8km/h 25.9mph /  41.7km/h 42% 0in /  0.0mm 464 W/m2
21:33 69.1 °F /  20.6 °C 45.7 °F /  7.6 °C 29.7in /  1006.3hPa NW 10.7mph /  17.2km/h 25.9mph /  41.7km/h 43% 0in /  0.0mm 430 W/m2
21:38 68.4 °F /  20.2 °C 45 °F /  7.2 °C 29.7in /  1006.7hPa NW 9.8mph /  15.8km/h 19mph /  30.6km/h 43% 0in /  0.0mm 245 W/m2
21:43 67.8 °F /  19.9 °C 45.7 °F /  7.6 °C 29.7in /  1006.3hPa NW 13.6mph /  21.9km/h 19mph /  30.6km/h 45% 0in /  0.0mm 351 W/m2
21:48 67.6 °F /  19.8 °C 45.7 °F /  7.6 °C 29.7in /  1006.3hPa NNW 8.3mph /  13.4km/h 19.7mph /  31.7km/h 45% 0in /  0.0mm 247 W/m2
21:53 67.6 °F /  19.8 °C 45.7 °F /  7.6 °C 29.7in /  1006.3hPa NNW 11.4mph /  18.3km/h 21.3mph /  34.3km/h 45% 0in /  0.0mm 242 W/m2
21:58 66.9 °F /  19.4 °C 46 °F /  7.8 °C 29.7in /  1006.7hPa NW 13.6mph /  21.9km/h 21.3mph /  34.3km/h 47% 0in /  0.0mm 194 W/m2
22:03 65.7 °F /  18.7 °C 46.6 °F /  8.1 °C 29.7in /  1006.3hPa NW 8.3mph /  13.4km/h 21.3mph /  34.3km/h 50% 0in /  0.0mm 165 W/m2
22:08 64.4 °F /  18.0 °C 43.7 °F /  6.5 °C 29.7in /  1006.7hPa NW 12.1mph /  19.5km/h 23.5mph /  37.8km/h 47% 0in /  0.0mm 191 W/m2
22:13 65.7 °F /  18.7 °C 45 °F /  7.2 °C 29.7in /  1006.7hPa NW 15.9mph /  25.6km/h 25.9mph /  41.7km/h 47% 0in /  0.0mm 258 W/m2
22:31 65.8 °F /  18.8 °C 46.2 °F /  7.9 °C 29.7in /  1006.7hPa NW 8.3mph /  13.4km/h 22.1mph /  35.6km/h 49% 0in /  0.0mm 115 W/m2
22:36 65.7 °F /  18.7 °C 46 °F /  7.8 °C 29.7in /  1007.0hPa NW 9.2mph /  14.8km/h 19mph /  30.6km/h 49% 0in /  0.0mm 102 W/m2
22:41 66.4 °F /  19.1 °C 47.1 °F /  8.4 °C 29.7in /  1007.0hPa NNW 10.7mph /  17.2km/h 19mph /  30.6km/h 50% 0in /  0.0mm 89 W/m2
22:46 67.1 °F /  19.5 °C 47.3 °F /  8.5 °C 29.7in /  1007.0hPa NNW 8.3mph /  13.4km/h 17.4mph /  28.0km/h 49% 0in /  0.0mm 149 W/m2
22:51 67.6 °F /  19.8 °C 47.3 °F /  8.5 °C 29.7in /  1007.0hPa NNW 9.2mph /  14.8km/h 17.4mph /  28.0km/h 48% 0in /  0.0mm 100 W/m2
22:56 68 °F /  20.0 °C 45.9 °F /  7.7 °C 29.7in /  1007.3hPa NW 4.5mph /  7.2km/h 15.9mph /  25.6km/h 45% 0in /  0.0mm 88 W/m2
23:01 67.5 °F /  19.7 °C 45.3 °F /  7.4 °C 29.7in /  1007.3hPa WNW 8.3mph /  13.4km/h 19mph /  30.6km/h 45% 0in /  0.0mm 154 W/m2
23:06 68 °F /  20.0 °C 45.9 °F /  7.7 °C 29.7in /  1007.0hPa WNW 7.6mph /  12.2km/h 19mph /  30.6km/h 45% 0in /  0.0mm 162 W/m2
23:11 67.1 °F /  19.5 °C 45.1 °F /  7.3 °C 29.7in /  1007.0hPa WNW 5.4mph /  8.7km/h 13.6mph /  21.9km/h 45% 0in /  0.0mm 98 W/m2
23:16 64.9 °F /  18.3 °C 43.7 °F /  6.5 °C 29.7in /  1007.3hPa WNW 14.5mph /  23.3km/h 20.6mph /  33.1km/h 46% 0in /  0.0mm 83 W/m2
23:21 64 °F /  17.8 °C 45 °F /  7.2 °C 29.7in /  1007.3hPa WNW 5.4mph /  8.7km/h 20.6mph /  33.1km/h 50% 0in /  0.0mm 47 W/m2
23:26 63.3 °F /  17.4 °C 45 °F /  7.2 °C 29.8in /  1007.7hPa WNW 6.9mph /  11.1km/h 20.6mph /  33.1km/h 51% 0in /  0.0mm 23 W/m2
23:31 62.1 °F /  16.7 °C 43.2 °F /  6.2 °C 29.8in /  1008.4hPa WNW 14.5mph /  23.3km/h 24.4mph /  39.3km/h 50% 0in /  0.0mm 17 W/m2
23:36 60.3 °F /  15.7 °C 44.1 °F /  6.7 °C 29.7in /  1007.3hPa WNW 5.4mph /  8.7km/h 24.4mph /  39.3km/h 55% 0in /  0.0mm 34 W/m2
23:41 59.4 °F /  15.2 °C 44.6 °F /  7.0 °C 29.7in /  1007.3hPa WNW 3.1mph /  5.0km/h 13.6mph /  21.9km/h 58% 0in /  0.0mm 71 W/m2
23:46 59.2 °F /  15.1 °C 45.3 °F /  7.4 °C 29.7in /  1007.3hPa NW 1.6mph /  2.6km/h 10.7mph /  17.2km/h 60% 0in /  0.0mm 82 W/m2
23:51 58.8 °F /  14.9 °C 47.1 °F /  8.4 °C 29.8in /  1007.7hPa NW 2.2mph /  3.5km/h 7.6mph /  12.2km/h 65% 0in /  0.0mm 125 W/m2
23:56 59.5 °F /  15.3 °C 48.2 °F /  9.0 °C 29.8in /  1008.0hPa NW 0.7mph /  1.1km/h 7.6mph /  12.2km/h 66% 0in /  0.0mm 169 W/m2
Northern Hawkes Bay. New Zealand Historic Data
Compliments of Weather Underground - 2 mb